sensor_id;sensor_type;location;lat;lon;timestamp;P1;durP1;ratioP1;P2;durP2;ratioP2
36377;SDS011;22402;42.746;23.606;2022-08-18T00:00:08;9.73;;;6.50;;
36377;SDS011;22402;42.746;23.606;2022-08-18T00:02:33;10.20;;;6.37;;
36377;SDS011;22402;42.746;23.606;2022-08-18T00:04:59;6.97;;;6.10;;
36377;SDS011;22402;42.746;23.606;2022-08-18T00:07:28;7.20;;;6.00;;
36377;SDS011;22402;42.746;23.606;2022-08-18T00:09:53;11.67;;;6.00;;
36377;SDS011;22402;42.746;23.606;2022-08-18T00:12:25;8.40;;;6.30;;
36377;SDS011;22402;42.746;23.606;2022-08-18T00:14:51;9.67;;;6.73;;
36377;SDS011;22402;42.746;23.606;2022-08-18T00:17:16;10.50;;;5.90;;
36377;SDS011;22402;42.746;23.606;2022-08-18T00:19:42;11.30;;;6.00;;
36377;SDS011;22402;42.746;23.606;2022-08-18T00:22:08;24.00;;;7.03;;
36377;SDS011;22402;42.746;23.606;2022-08-18T00:24:33;7.50;;;5.93;;
36377;SDS011;22402;42.746;23.606;2022-08-18T00:26:58;9.93;;;5.93;;
36377;SDS011;22402;42.746;23.606;2022-08-18T00:29:24;10.20;;;6.50;;
36377;SDS011;22402;42.746;23.606;2022-08-18T00:31:49;7.87;;;6.40;;
36377;SDS011;22402;42.746;23.606;2022-08-18T00:34:15;10.10;;;6.13;;
36377;SDS011;22402;42.746;23.606;2022-08-18T00:36:40;15.00;;;6.33;;
36377;SDS011;22402;42.746;23.606;2022-08-18T00:39:05;9.00;;;6.10;;
36377;SDS011;22402;42.746;23.606;2022-08-18T00:41:30;9.97;;;7.10;;
36377;SDS011;22402;42.746;23.606;2022-08-18T00:43:56;7.37;;;6.10;;
36377;SDS011;22402;42.746;23.606;2022-08-18T00:46:26;8.83;;;5.80;;
36377;SDS011;22402;42.746;23.606;2022-08-18T00:48:51;11.63;;;5.93;;
36377;SDS011;22402;42.746;23.606;2022-08-18T00:51:32;6.33;;;5.30;;
36377;SDS011;22402;42.746;23.606;2022-08-18T00:54:00;10.13;;;6.47;;
36377;SDS011;22402;42.746;23.606;2022-08-18T00:56:29;10.87;;;6.43;;
36377;SDS011;22402;42.746;23.606;2022-08-18T01:01:27;9.03;;;6.00;;
36377;SDS011;22402;42.746;23.606;2022-08-18T01:03:56;10.80;;;6.10;;
36377;SDS011;22402;42.746;23.606;2022-08-18T01:06:25;8.60;;;6.07;;
36377;SDS011;22402;42.746;23.606;2022-08-18T01:08:51;9.53;;;6.77;;
36377;SDS011;22402;42.746;23.606;2022-08-18T01:11:16;8.60;;;5.90;;
36377;SDS011;22402;42.746;23.606;2022-08-18T01:13:41;8.57;;;6.87;;
36377;SDS011;22402;42.746;23.606;2022-08-18T01:16:07;6.50;;;5.57;;
36377;SDS011;22402;42.746;23.606;2022-08-18T01:18:32;10.00;;;6.10;;
36377;SDS011;22402;42.746;23.606;2022-08-18T01:21:11;9.75;;;6.53;;
36377;SDS011;22402;42.746;23.606;2022-08-18T01:23:37;6.73;;;5.60;;
36377;SDS011;22402;42.746;23.606;2022-08-18T01:26:03;9.67;;;6.90;;
36377;SDS011;22402;42.746;23.606;2022-08-18T01:28:30;7.40;;;6.63;;
36377;SDS011;22402;42.746;23.606;2022-08-18T01:30:56;9.13;;;6.03;;
36377;SDS011;22402;42.746;23.606;2022-08-18T01:33:21;8.70;;;6.33;;
36377;SDS011;22402;42.746;23.606;2022-08-18T01:35:47;8.43;;;7.00;;
36377;SDS011;22402;42.746;23.606;2022-08-18T01:38:13;8.80;;;6.80;;
36377;SDS011;22402;42.746;23.606;2022-08-18T01:40:38;8.63;;;6.73;;
36377;SDS011;22402;42.746;23.606;2022-08-18T01:43:03;9.77;;;7.23;;
36377;SDS011;22402;42.746;23.606;2022-08-18T01:45:28;12.67;;;7.90;;
36377;SDS011;22402;42.746;23.606;2022-08-18T01:47:54;8.00;;;7.20;;
36377;SDS011;22402;42.746;23.606;2022-08-18T01:50:19;9.90;;;7.50;;
36377;SDS011;22402;42.746;23.606;2022-08-18T01:52:44;9.90;;;7.53;;
36377;SDS011;22402;42.746;23.606;2022-08-18T01:55:09;12.93;;;8.10;;
36377;SDS011;22402;42.746;23.606;2022-08-18T01:57:35;11.33;;;7.17;;
36377;SDS011;22402;42.746;23.606;2022-08-18T02:00:01;8.07;;;7.03;;
36377;SDS011;22402;42.746;23.606;2022-08-18T02:02:26;11.93;;;6.87;;
36377;SDS011;22402;42.746;23.606;2022-08-18T02:04:54;8.67;;;7.37;;
36377;SDS011;22402;42.746;23.606;2022-08-18T02:07:20;8.20;;;5.93;;
36377;SDS011;22402;42.746;23.606;2022-08-18T02:09:45;11.23;;;6.33;;
36377;SDS011;22402;42.746;23.606;2022-08-18T02:12:11;11.80;;;6.77;;
36377;SDS011;22402;42.746;23.606;2022-08-18T02:14:36;15.20;;;6.67;;
36377;SDS011;22402;42.746;23.606;2022-08-18T02:17:02;10.90;;;6.30;;
36377;SDS011;22402;42.746;23.606;2022-08-18T02:19:35;11.03;;;5.90;;
36377;SDS011;22402;42.746;23.606;2022-08-18T02:22:00;9.80;;;6.83;;
36377;SDS011;22402;42.746;23.606;2022-08-18T02:24:26;7.70;;;6.67;;
36377;SDS011;22402;42.746;23.606;2022-08-18T02:26:51;10.03;;;7.37;;
36377;SDS011;22402;42.746;23.606;2022-08-18T02:29:16;10.23;;;7.30;;
36377;SDS011;22402;42.746;23.606;2022-08-18T02:31:41;7.57;;;6.30;;
36377;SDS011;22402;42.746;23.606;2022-08-18T02:34:07;9.80;;;6.68;;
36377;SDS011;22402;42.746;23.606;2022-08-18T02:36:32;10.17;;;6.70;;
36377;SDS011;22402;42.746;23.606;2022-08-18T02:38:57;8.40;;;6.90;;
36377;SDS011;22402;42.746;23.606;2022-08-18T02:41:22;14.63;;;7.20;;
36377;SDS011;22402;42.746;23.606;2022-08-18T02:43:48;9.40;;;7.07;;
36377;SDS011;22402;42.746;23.606;2022-08-18T03:06:53;9.20;;;6.77;;
36377;SDS011;22402;42.746;23.606;2022-08-18T03:09:19;12.63;;;7.97;;
36377;SDS011;22402;42.746;23.606;2022-08-18T03:11:44;9.83;;;7.00;;
36377;SDS011;22402;42.746;23.606;2022-08-18T03:14:10;13.73;;;7.43;;
36377;SDS011;22402;42.746;23.606;2022-08-18T03:16:37;12.83;;;6.70;;
36377;SDS011;22402;42.746;23.606;2022-08-18T03:19:02;7.57;;;6.77;;
36377;SDS011;22402;42.746;23.606;2022-08-18T03:21:29;9.37;;;7.03;;
36377;SDS011;22402;42.746;23.606;2022-08-18T03:23:55;12.57;;;7.07;;
36377;SDS011;22402;42.746;23.606;2022-08-18T03:26:21;9.60;;;7.27;;
36377;SDS011;22402;42.746;23.606;2022-08-18T03:28:47;10.00;;;7.37;;
36377;SDS011;22402;42.746;23.606;2022-08-18T03:31:13;10.00;;;7.07;;
36377;SDS011;22402;42.746;23.606;2022-08-18T03:33:39;9.80;;;7.60;;
36377;SDS011;22402;42.746;23.606;2022-08-18T03:36:05;11.40;;;7.70;;
36377;SDS011;22402;42.746;23.606;2022-08-18T03:38:31;10.80;;;6.93;;
36377;SDS011;22402;42.746;23.606;2022-08-18T03:40:57;10.00;;;7.67;;
36377;SDS011;22402;42.746;23.606;2022-08-18T03:43:22;8.33;;;6.63;;
36377;SDS011;22402;42.746;23.606;2022-08-18T03:45:47;8.97;;;7.07;;
36377;SDS011;22402;42.746;23.606;2022-08-18T03:48:12;8.80;;;6.67;;
36377;SDS011;22402;42.746;23.606;2022-08-18T03:50:37;8.10;;;7.30;;
36377;SDS011;22402;42.746;23.606;2022-08-18T03:53:03;10.23;;;7.90;;
36377;SDS011;22402;42.746;23.606;2022-08-18T03:55:28;10.00;;;6.93;;
36377;SDS011;22402;42.746;23.606;2022-08-18T03:57:56;8.93;;;6.53;;
36377;SDS011;22402;42.746;23.606;2022-08-18T04:00:22;10.00;;;7.60;;
36377;SDS011;22402;42.746;23.606;2022-08-18T04:02:47;11.68;;;7.43;;
36377;SDS011;22402;42.746;23.606;2022-08-18T04:05:12;13.40;;;7.72;;
36377;SDS011;22402;42.746;23.606;2022-08-18T04:07:37;10.43;;;7.80;;
36377;SDS011;22402;42.746;23.606;2022-08-18T04:10:02;11.77;;;6.80;;
36377;SDS011;22402;42.746;23.606;2022-08-18T04:12:28;8.77;;;7.07;;
36377;SDS011;22402;42.746;23.606;2022-08-18T04:14:53;13.57;;;7.00;;
36377;SDS011;22402;42.746;23.606;2022-08-18T04:17:19;11.93;;;6.70;;
36377;SDS011;22402;42.746;23.606;2022-08-18T04:19:44;9.27;;;8.30;;
36377;SDS011;22402;42.746;23.606;2022-08-18T04:22:09;14.20;;;7.87;;
36377;SDS011;22402;42.746;23.606;2022-08-18T04:24:34;9.73;;;7.67;;
36377;SDS011;22402;42.746;23.606;2022-08-18T04:27:00;11.83;;;7.70;;
36377;SDS011;22402;42.746;23.606;2022-08-18T04:29:26;12.07;;;8.90;;
36377;SDS011;22402;42.746;23.606;2022-08-18T04:31:51;10.90;;;7.70;;
36377;SDS011;22402;42.746;23.606;2022-08-18T04:34:17;13.73;;;9.40;;
36377;SDS011;22402;42.746;23.606;2022-08-18T04:36:42;11.70;;;8.00;;
36377;SDS011;22402;42.746;23.606;2022-08-18T04:39:08;11.87;;;9.30;;
36377;SDS011;22402;42.746;23.606;2022-08-18T04:41:35;8.80;;;7.47;;
36377;SDS011;22402;42.746;23.606;2022-08-18T04:44:01;9.90;;;7.17;;
36377;SDS011;22402;42.746;23.606;2022-08-18T04:46:27;10.97;;;7.27;;
36377;SDS011;22402;42.746;23.606;2022-08-18T04:48:53;7.73;;;6.37;;
36377;SDS011;22402;42.746;23.606;2022-08-18T04:51:18;10.20;;;6.53;;
36377;SDS011;22402;42.746;23.606;2022-08-18T04:53:45;8.87;;;6.30;;
36377;SDS011;22402;42.746;23.606;2022-08-18T04:58:38;8.90;;;6.30;;
36377;SDS011;22402;42.746;23.606;2022-08-18T05:01:03;12.03;;;8.30;;
36377;SDS011;22402;42.746;23.606;2022-08-18T05:03:29;11.27;;;8.20;;
36377;SDS011;22402;42.746;23.606;2022-08-18T05:05:55;13.00;;;8.97;;
36377;SDS011;22402;42.746;23.606;2022-08-18T05:08:21;8.47;;;6.90;;
36377;SDS011;22402;42.746;23.606;2022-08-18T05:10:46;9.53;;;8.03;;
36377;SDS011;22402;42.746;23.606;2022-08-18T05:13:11;10.77;;;8.40;;
36377;SDS011;22402;42.746;23.606;2022-08-18T05:15:37;15.37;;;8.83;;
36377;SDS011;22402;42.746;23.606;2022-08-18T05:18:02;11.70;;;7.80;;
36377;SDS011;22402;42.746;23.606;2022-08-18T05:20:27;10.70;;;7.60;;
36377;SDS011;22402;42.746;23.606;2022-08-18T05:22:52;12.10;;;7.70;;
36377;SDS011;22402;42.746;23.606;2022-08-18T05:25:17;9.50;;;7.47;;
36377;SDS011;22402;42.746;23.606;2022-08-18T05:27:43;11.53;;;7.97;;
36377;SDS011;22402;42.746;23.606;2022-08-18T05:30:08;15.23;;;8.83;;
36377;SDS011;22402;42.746;23.606;2022-08-18T05:32:34;14.23;;;7.83;;
36377;SDS011;22402;42.746;23.606;2022-08-18T05:35:03;11.17;;;7.77;;
36377;SDS011;22402;42.746;23.606;2022-08-18T05:37:35;10.10;;;7.60;;
36377;SDS011;22402;42.746;23.606;2022-08-18T05:40:04;14.33;;;8.07;;
36377;SDS011;22402;42.746;23.606;2022-08-18T05:42:32;10.20;;;7.80;;
36377;SDS011;22402;42.746;23.606;2022-08-18T05:44:59;12.67;;;8.70;;
36377;SDS011;22402;42.746;23.606;2022-08-18T05:47:28;15.47;;;8.10;;
36377;SDS011;22402;42.746;23.606;2022-08-18T05:49:55;19.43;;;8.00;;
36377;SDS011;22402;42.746;23.606;2022-08-18T05:54:47;8.10;;;6.93;;
36377;SDS011;22402;42.746;23.606;2022-08-18T05:57:16;10.20;;;7.97;;
36377;SDS011;22402;42.746;23.606;2022-08-18T05:59:42;9.90;;;7.50;;
36377;SDS011;22402;42.746;23.606;2022-08-18T06:02:13;9.73;;;7.63;;
36377;SDS011;22402;42.746;23.606;2022-08-18T06:04:43;11.17;;;7.10;;
36377;SDS011;22402;42.746;23.606;2022-08-18T06:07:13;10.30;;;6.77;;
36377;SDS011;22402;42.746;23.606;2022-08-18T06:09:49;21.20;;;7.43;;
36377;SDS011;22402;42.746;23.606;2022-08-18T06:12:18;10.23;;;7.13;;
36377;SDS011;22402;42.746;23.606;2022-08-18T06:14:44;26.73;;;7.90;;
36377;SDS011;22402;42.746;23.606;2022-08-18T06:19:51;9.83;;;7.07;;
36377;SDS011;22402;42.746;23.606;2022-08-18T06:35:43;14.13;;;6.93;;
36377;SDS011;22402;42.746;23.606;2022-08-18T06:41:00;13.23;;;6.47;;
36377;SDS011;22402;42.746;23.606;2022-08-18T06:43:26;7.57;;;6.77;;
36377;SDS011;22402;42.746;23.606;2022-08-18T06:45:51;10.27;;;7.00;;
36377;SDS011;22402;42.746;23.606;2022-08-18T06:50:51;14.83;;;6.43;;
36377;SDS011;22402;42.746;23.606;2022-08-18T06:53:17;10.17;;;6.03;;
36377;SDS011;22402;42.746;23.606;2022-08-18T06:55:46;13.23;;;6.60;;
36377;SDS011;22402;42.746;23.606;2022-08-18T07:00:37;11.95;;;7.35;;
36377;SDS011;22402;42.746;23.606;2022-08-18T07:03:04;7.40;;;5.40;;
36377;SDS011;22402;42.746;23.606;2022-08-18T07:05:32;9.17;;;5.50;;
36377;SDS011;22402;42.746;23.606;2022-08-18T07:08:40;7.20;;;5.30;;
36377;SDS011;22402;42.746;23.606;2022-08-18T07:10:47;7.70;;;6.20;;
36377;SDS011;22402;42.746;23.606;2022-08-18T07:15:41;16.60;;;5.60;;
36377;SDS011;22402;42.746;23.606;2022-08-18T07:18:07;11.63;;;6.13;;
36377;SDS011;22402;42.746;23.606;2022-08-18T07:20:49;14.13;;;5.67;;
36377;SDS011;22402;42.746;23.606;2022-08-18T07:23:20;7.70;;;5.90;;
36377;SDS011;22402;42.746;23.606;2022-08-18T07:25:47;9.97;;;6.30;;
36377;SDS011;22402;42.746;23.606;2022-08-18T07:30:52;9.83;;;6.00;;
36377;SDS011;22402;42.746;23.606;2022-08-18T07:33:21;9.27;;;6.30;;
36377;SDS011;22402;42.746;23.606;2022-08-18T07:35:49;12.13;;;8.90;;
36377;SDS011;22402;42.746;23.606;2022-08-18T07:38:21;11.20;;;7.23;;
36377;SDS011;22402;42.746;23.606;2022-08-18T07:43:24;12.80;;;7.90;;
36377;SDS011;22402;42.746;23.606;2022-08-18T07:45:54;19.17;;;8.33;;
36377;SDS011;22402;42.746;23.606;2022-08-18T07:48:24;15.03;;;5.90;;
36377;SDS011;22402;42.746;23.606;2022-08-18T07:56:12;11.63;;;5.90;;
36377;SDS011;22402;42.746;23.606;2022-08-18T07:58:42;14.53;;;5.37;;
36377;SDS011;22402;42.746;23.606;2022-08-18T08:01:15;10.90;;;5.17;;
36377;SDS011;22402;42.746;23.606;2022-08-18T08:03:49;14.83;;;6.37;;
36377;SDS011;22402;42.746;23.606;2022-08-18T08:06:23;9.93;;;6.30;;
36377;SDS011;22402;42.746;23.606;2022-08-18T08:14:23;10.63;;;5.50;;
36377;SDS011;22402;42.746;23.606;2022-08-18T08:17:04;11.87;;;5.80;;
36377;SDS011;22402;42.746;23.606;2022-08-18T08:27:15;8.60;;;5.73;;
36377;SDS011;22402;42.746;23.606;2022-08-18T08:29:45;8.50;;;4.90;;
36377;SDS011;22402;42.746;23.606;2022-08-18T08:32:20;8.83;;;5.00;;
36377;SDS011;22402;42.746;23.606;2022-08-18T08:34:50;14.97;;;6.00;;
36377;SDS011;22402;42.746;23.606;2022-08-18T08:37:59;13.00;;;5.10;;
36377;SDS011;22402;42.746;23.606;2022-08-18T08:40:06;13.93;;;5.00;;
36377;SDS011;22402;42.746;23.606;2022-08-18T08:45:24;16.33;;;4.67;;
36377;SDS011;22402;42.746;23.606;2022-08-18T08:47:54;8.23;;;4.83;;
36377;SDS011;22402;42.746;23.606;2022-08-18T08:50:21;10.70;;;4.50;;
36377;SDS011;22402;42.746;23.606;2022-08-18T08:57:49;7.60;;;4.60;;
36377;SDS011;22402;42.746;23.606;2022-08-18T09:00:15;9.90;;;4.60;;
36377;SDS011;22402;42.746;23.606;2022-08-18T09:05:26;12.23;;;5.53;;
36377;SDS011;22402;42.746;23.606;2022-08-18T09:18:50;6.53;;;4.50;;
36377;SDS011;22402;42.746;23.606;2022-08-18T09:24:20;8.43;;;4.10;;
36377;SDS011;22402;42.746;23.606;2022-08-18T09:26:48;5.33;;;4.07;;
36377;SDS011;22402;42.746;23.606;2022-08-18T09:29:57;13.50;;;4.63;;
36377;SDS011;22402;42.746;23.606;2022-08-18T09:34:56;9.03;;;4.20;;
36377;SDS011;22402;42.746;23.606;2022-08-18T09:38:07;5.67;;;4.33;;
36377;SDS011;22402;42.746;23.606;2022-08-18T09:40:16;8.07;;;4.00;;
36377;SDS011;22402;42.746;23.606;2022-08-18T09:42:53;7.90;;;4.53;;
36377;SDS011;22402;42.746;23.606;2022-08-18T09:52:48;6.03;;;4.50;;
36377;SDS011;22402;42.746;23.606;2022-08-18T09:57:41;4.03;;;3.63;;
36377;SDS011;22402;42.746;23.606;2022-08-18T10:07:44;10.10;;;3.03;;
36377;SDS011;22402;42.746;23.606;2022-08-18T10:13:02;6.53;;;3.53;;
36377;SDS011;22402;42.746;23.606;2022-08-18T10:15:38;4.40;;;3.07;;
36377;SDS011;22402;42.746;23.606;2022-08-18T10:18:12;5.50;;;3.20;;
36377;SDS011;22402;42.746;23.606;2022-08-18T10:25:57;5.03;;;3.80;;
36377;SDS011;22402;42.746;23.606;2022-08-18T10:31:27;6.40;;;4.33;;
36377;SDS011;22402;42.746;23.606;2022-08-18T10:34:00;4.53;;;4.07;;
36377;SDS011;22402;42.746;23.606;2022-08-18T10:36:39;3.67;;;3.33;;
36377;SDS011;22402;42.746;23.606;2022-08-18T10:39:06;4.87;;;3.47;;
36377;SDS011;22402;42.746;23.606;2022-08-18T10:41:34;7.63;;;3.43;;
36377;SDS011;22402;42.746;23.606;2022-08-18T10:44:01;4.00;;;3.60;;
36377;SDS011;22402;42.746;23.606;2022-08-18T10:46:33;5.93;;;4.30;;
36377;SDS011;22402;42.746;23.606;2022-08-18T10:49:41;7.73;;;3.87;;
36377;SDS011;22402;42.746;23.606;2022-08-18T10:54:23;5.07;;;3.93;;
36377;SDS011;22402;42.746;23.606;2022-08-18T10:56:56;5.07;;;3.50;;
36377;SDS011;22402;42.746;23.606;2022-08-18T11:02:19;5.20;;;3.77;;
36377;SDS011;22402;42.746;23.606;2022-08-18T11:04:47;4.50;;;4.00;;
36377;SDS011;22402;42.746;23.606;2022-08-18T11:07:24;4.27;;;3.40;;
36377;SDS011;22402;42.746;23.606;2022-08-18T11:09:50;7.17;;;3.50;;
36377;SDS011;22402;42.746;23.606;2022-08-18T11:19:55;4.17;;;3.77;;
36377;SDS011;22402;42.746;23.606;2022-08-18T11:24:50;8.73;;;3.70;;
36377;SDS011;22402;42.746;23.606;2022-08-18T11:27:20;5.50;;;3.43;;
36377;SDS011;22402;42.746;23.606;2022-08-18T11:29:46;3.83;;;3.20;;
36377;SDS011;22402;42.746;23.606;2022-08-18T11:32:27;4.20;;;3.43;;
36377;SDS011;22402;42.746;23.606;2022-08-18T11:37:31;6.53;;;3.40;;
36377;SDS011;22402;42.746;23.606;2022-08-18T11:39:59;3.77;;;3.23;;
36377;SDS011;22402;42.746;23.606;2022-08-18T11:42:26;5.83;;;3.30;;
36377;SDS011;22402;42.746;23.606;2022-08-18T11:45:14;3.50;;;3.20;;
36377;SDS011;22402;42.746;23.606;2022-08-18T11:47:37;5.13;;;3.00;;
36377;SDS011;22402;42.746;23.606;2022-08-18T11:50:26;9.30;;;3.43;;
36377;SDS011;22402;42.746;23.606;2022-08-18T11:52:52;7.73;;;3.27;;
36377;SDS011;22402;42.746;23.606;2022-08-18T11:55:19;5.20;;;3.83;;
36377;SDS011;22402;42.746;23.606;2022-08-18T11:57:49;10.37;;;2.90;;
36377;SDS011;22402;42.746;23.606;2022-08-18T12:05:52;4.67;;;3.17;;
36377;SDS011;22402;42.746;23.606;2022-08-18T12:08:27;3.47;;;2.37;;
36377;SDS011;22402;42.746;23.606;2022-08-18T12:11:00;9.40;;;3.30;;
36377;SDS011;22402;42.746;23.606;2022-08-18T12:13:26;3.47;;;2.73;;
36377;SDS011;22402;42.746;23.606;2022-08-18T12:16:07;3.70;;;2.53;;
36377;SDS011;22402;42.746;23.606;2022-08-18T12:18:33;3.80;;;3.00;;
36377;SDS011;22402;42.746;23.606;2022-08-18T12:20:58;3.97;;;2.72;;
36377;SDS011;22402;42.746;23.606;2022-08-18T12:23:23;4.50;;;3.23;;
36377;SDS011;22402;42.746;23.606;2022-08-18T12:25:48;4.93;;;3.33;;
36377;SDS011;22402;42.746;23.606;2022-08-18T12:28:18;7.03;;;2.90;;
36377;SDS011;22402;42.746;23.606;2022-08-18T12:30:43;5.80;;;3.10;;
36377;SDS011;22402;42.746;23.606;2022-08-18T12:33:08;4.40;;;2.60;;
36377;SDS011;22402;42.746;23.606;2022-08-18T12:35:34;6.50;;;3.22;;
36377;SDS011;22402;42.746;23.606;2022-08-18T12:37:59;3.35;;;3.05;;
36377;SDS011;22402;42.746;23.606;2022-08-18T12:40:24;3.13;;;2.83;;
36377;SDS011;22402;42.746;23.606;2022-08-18T12:42:49;6.20;;;2.90;;
36377;SDS011;22402;42.746;23.606;2022-08-18T12:45:14;5.47;;;3.40;;
36377;SDS011;22402;42.746;23.606;2022-08-18T12:47:40;4.03;;;3.10;;
36377;SDS011;22402;42.746;23.606;2022-08-18T12:50:05;3.63;;;3.20;;
36377;SDS011;22402;42.746;23.606;2022-08-18T12:52:30;4.77;;;3.63;;
36377;SDS011;22402;42.746;23.606;2022-08-18T12:54:56;9.55;;;3.50;;
36377;SDS011;22402;42.746;23.606;2022-08-18T12:57:23;4.37;;;2.63;;
36377;SDS011;22402;42.746;23.606;2022-08-18T12:59:48;4.70;;;3.00;;
36377;SDS011;22402;42.746;23.606;2022-08-18T13:02:13;5.03;;;2.70;;
36377;SDS011;22402;42.746;23.606;2022-08-18T13:04:38;4.70;;;3.23;;
36377;SDS011;22402;42.746;23.606;2022-08-18T13:07:04;3.50;;;2.73;;
36377;SDS011;22402;42.746;23.606;2022-08-18T13:09:30;3.83;;;3.13;;
36377;SDS011;22402;42.746;23.606;2022-08-18T13:11:55;3.33;;;3.03;;
36377;SDS011;22402;42.746;23.606;2022-08-18T13:14:20;3.60;;;2.47;;
36377;SDS011;22402;42.746;23.606;2022-08-18T13:16:45;6.03;;;2.60;;
36377;SDS011;22402;42.746;23.606;2022-08-18T13:19:11;4.70;;;2.50;;
36377;SDS011;22402;42.746;23.606;2022-08-18T13:21:37;3.63;;;2.77;;
36377;SDS011;22402;42.746;23.606;2022-08-18T13:24:02;7.03;;;3.00;;
36377;SDS011;22402;42.746;23.606;2022-08-18T13:26:28;2.90;;;2.70;;
36377;SDS011;22402;42.746;23.606;2022-08-18T13:28:54;3.40;;;2.77;;
36377;SDS011;22402;42.746;23.606;2022-08-18T13:31:19;2.90;;;2.23;;
36377;SDS011;22402;42.746;23.606;2022-08-18T13:33:45;3.10;;;2.80;;
36377;SDS011;22402;42.746;23.606;2022-08-18T13:36:10;3.47;;;2.60;;
36377;SDS011;22402;42.746;23.606;2022-08-18T13:38:35;3.00;;;2.70;;
36377;SDS011;22402;42.746;23.606;2022-08-18T13:41:01;2.97;;;2.63;;
36377;SDS011;22402;42.746;23.606;2022-08-18T13:43:31;7.40;;;2.77;;
36377;SDS011;22402;42.746;23.606;2022-08-18T13:45:57;3.20;;;2.60;;
36377;SDS011;22402;42.746;23.606;2022-08-18T13:48:23;2.40;;;2.23;;
36377;SDS011;22402;42.746;23.606;2022-08-18T13:50:48;3.83;;;2.30;;
36377;SDS011;22402;42.746;23.606;2022-08-18T13:53:14;4.03;;;2.73;;
36377;SDS011;22402;42.746;23.606;2022-08-18T13:55:40;2.50;;;1.97;;
36377;SDS011;22402;42.746;23.606;2022-08-18T13:58:05;11.70;;;2.87;;
36377;SDS011;22402;42.746;23.606;2022-08-18T14:00:31;3.30;;;2.37;;
36377;SDS011;22402;42.746;23.606;2022-08-18T14:02:57;4.40;;;2.63;;
36377;SDS011;22402;42.746;23.606;2022-08-18T14:05:23;8.60;;;2.60;;
36377;SDS011;22402;42.746;23.606;2022-08-18T14:07:48;4.00;;;3.00;;
36377;SDS011;22402;42.746;23.606;2022-08-18T14:10:14;6.10;;;2.40;;
36377;SDS011;22402;42.746;23.606;2022-08-18T14:12:39;6.80;;;2.40;;
36377;SDS011;22402;42.746;23.606;2022-08-18T14:15:05;3.30;;;2.43;;
36377;SDS011;22402;42.746;23.606;2022-08-18T14:17:31;2.53;;;2.27;;
36377;SDS011;22402;42.746;23.606;2022-08-18T14:19:57;5.40;;;2.57;;
36377;SDS011;22402;42.746;23.606;2022-08-18T14:22:22;6.63;;;2.80;;
36377;SDS011;22402;42.746;23.606;2022-08-18T14:24:48;3.53;;;2.53;;
36377;SDS011;22402;42.746;23.606;2022-08-18T14:27:13;5.60;;;3.20;;
36377;SDS011;22402;42.746;23.606;2022-08-18T14:29:38;4.03;;;2.73;;
36377;SDS011;22402;42.746;23.606;2022-08-18T14:32:04;4.53;;;3.30;;
36377;SDS011;22402;42.746;23.606;2022-08-18T14:34:29;4.37;;;2.87;;
36377;SDS011;22402;42.746;23.606;2022-08-18T14:36:55;10.27;;;3.07;;
36377;SDS011;22402;42.746;23.606;2022-08-18T14:39:20;2.97;;;2.10;;
36377;SDS011;22402;42.746;23.606;2022-08-18T14:41:45;3.80;;;2.57;;
36377;SDS011;22402;42.746;23.606;2022-08-18T14:44:10;2.63;;;1.70;;
36377;SDS011;22402;42.746;23.606;2022-08-18T14:46:35;3.03;;;2.53;;
36377;SDS011;22402;42.746;23.606;2022-08-18T14:49:01;2.53;;;2.00;;
36377;SDS011;22402;42.746;23.606;2022-08-18T14:51:26;3.63;;;2.80;;
36377;SDS011;22402;42.746;23.606;2022-08-18T14:53:51;3.73;;;3.23;;
36377;SDS011;22402;42.746;23.606;2022-08-18T14:56:16;5.27;;;2.80;;
36377;SDS011;22402;42.746;23.606;2022-08-18T14:58:43;2.73;;;2.53;;
36377;SDS011;22402;42.746;23.606;2022-08-18T15:01:09;3.20;;;2.17;;
36377;SDS011;22402;42.746;23.606;2022-08-18T15:03:34;3.10;;;2.40;;
36377;SDS011;22402;42.746;23.606;2022-08-18T15:06:00;3.80;;;2.03;;
36377;SDS011;22402;42.746;23.606;2022-08-18T15:08:25;3.63;;;2.50;;
36377;SDS011;22402;42.746;23.606;2022-08-18T15:10:51;3.83;;;2.07;;
36377;SDS011;22402;42.746;23.606;2022-08-18T15:13:16;2.67;;;1.70;;
36377;SDS011;22402;42.746;23.606;2022-08-18T15:15:41;6.50;;;1.97;;
36377;SDS011;22402;42.746;23.606;2022-08-18T15:18:06;4.37;;;2.57;;
36377;SDS011;22402;42.746;23.606;2022-08-18T15:20:32;7.13;;;2.70;;
36377;SDS011;22402;42.746;23.606;2022-08-18T15:23:00;3.23;;;2.93;;
36377;SDS011;22402;42.746;23.606;2022-08-18T15:25:26;5.30;;;2.77;;
36377;SDS011;22402;42.746;23.606;2022-08-18T15:27:52;3.63;;;3.27;;
36377;SDS011;22402;42.746;23.606;2022-08-18T15:30:17;6.07;;;3.53;;
36377;SDS011;22402;42.746;23.606;2022-08-18T15:32:43;5.53;;;3.17;;
36377;SDS011;22402;42.746;23.606;2022-08-18T15:35:08;4.80;;;3.90;;
36377;SDS011;22402;42.746;23.606;2022-08-18T15:37:34;4.23;;;2.57;;
36377;SDS011;22402;42.746;23.606;2022-08-18T15:40:11;9.17;;;2.87;;
36377;SDS011;22402;42.746;23.606;2022-08-18T15:42:37;2.70;;;2.30;;
36377;SDS011;22402;42.746;23.606;2022-08-18T15:45:02;5.97;;;2.30;;
36377;SDS011;22402;42.746;23.606;2022-08-18T15:47:28;2.50;;;2.30;;
36377;SDS011;22402;42.746;23.606;2022-08-18T15:49:53;3.97;;;2.40;;
36377;SDS011;22402;42.746;23.606;2022-08-18T15:52:18;4.68;;;2.33;;
36377;SDS011;22402;42.746;23.606;2022-08-18T15:54:44;9.17;;;2.40;;
36377;SDS011;22402;42.746;23.606;2022-08-18T15:57:09;5.23;;;1.93;;
36377;SDS011;22402;42.746;23.606;2022-08-18T15:59:34;4.30;;;1.90;;
36377;SDS011;22402;42.746;23.606;2022-08-18T16:01:59;3.00;;;2.70;;
36377;SDS011;22402;42.746;23.606;2022-08-18T16:04:24;2.43;;;1.80;;
36377;SDS011;22402;42.746;23.606;2022-08-18T16:06:49;3.57;;;2.77;;
36377;SDS011;22402;42.746;23.606;2022-08-18T16:09:15;3.97;;;2.70;;
36377;SDS011;22402;42.746;23.606;2022-08-18T16:11:40;4.20;;;2.30;;
36377;SDS011;22402;42.746;23.606;2022-08-18T16:14:05;4.10;;;2.57;;
36377;SDS011;22402;42.746;23.606;2022-08-18T16:16:31;3.33;;;2.30;;
36377;SDS011;22402;42.746;23.606;2022-08-18T16:18:56;5.40;;;2.33;;
36377;SDS011;22402;42.746;23.606;2022-08-18T16:21:21;2.90;;;2.40;;
36377;SDS011;22402;42.746;23.606;2022-08-18T16:23:48;2.70;;;2.20;;
36377;SDS011;22402;42.746;23.606;2022-08-18T16:26:14;7.03;;;2.00;;
36377;SDS011;22402;42.746;23.606;2022-08-18T16:28:40;3.60;;;2.30;;
36377;SDS011;22402;42.746;23.606;2022-08-18T16:31:05;3.93;;;2.60;;
36377;SDS011;22402;42.746;23.606;2022-08-18T16:33:30;7.07;;;2.73;;
36377;SDS011;22402;42.746;23.606;2022-08-18T16:36:00;2.40;;;2.20;;
36377;SDS011;22402;42.746;23.606;2022-08-18T16:38:25;4.93;;;2.30;;
36377;SDS011;22402;42.746;23.606;2022-08-18T16:40:50;4.87;;;3.10;;
36377;SDS011;22402;42.746;23.606;2022-08-18T16:43:16;3.10;;;2.80;;
36377;SDS011;22402;42.746;23.606;2022-08-18T16:45:41;5.00;;;2.20;;
36377;SDS011;22402;42.746;23.606;2022-08-18T16:48:06;7.18;;;2.58;;
36377;SDS011;22402;42.746;23.606;2022-08-18T16:50:32;5.80;;;2.53;;
36377;SDS011;22402;42.746;23.606;2022-08-18T16:52:57;5.10;;;2.97;;
36377;SDS011;22402;42.746;23.606;2022-08-18T16:55:22;3.30;;;3.00;;
36377;SDS011;22402;42.746;23.606;2022-08-18T16:57:47;3.80;;;2.80;;
36377;SDS011;22402;42.746;23.606;2022-08-18T17:00:13;5.20;;;3.20;;
36377;SDS011;22402;42.746;23.606;2022-08-18T17:02:38;3.40;;;2.57;;
36377;SDS011;22402;42.746;23.606;2022-08-18T17:05:03;5.63;;;2.87;;
36377;SDS011;22402;42.746;23.606;2022-08-18T17:07:29;6.03;;;3.33;;